Lee Center, Illinois
Current Conditions -  °F | °C
As of 2:15 AM on Thursday 27 Nov 2014 (Local Time) from KRPJ Reporting Station
Haze Haze  
Wind Chill: 18°   Ceiling: 8500
Heat Index: 18°   Visibility: 4mi
Dew Point: 16°   Wind: 3mph
Humidity: 93%   Direction: 290°WNW
Pressure: 30.27"   Gusts: NA
Location:  41.75°N, 89.28°W
Report Text: KRPJ 270815Z AUTO 29003KT 4SM BR BKN085 OVC100 M08/M09 A3027 RMK AO2 T10801090
Loading
Personal Weather Stations






























Interactive Weather Map New forecast layout! Learn more

10-Day Weather Forecast

Advertisements
Track Severe Weather on mobile